createdAt,value
2017-10-12T00:02:07.694Z,12.49
2017-10-12T00:04:35.945Z,12.51
2017-10-12T00:07:04.191Z,12.61
2017-10-12T00:09:32.453Z,12.69
2017-10-12T00:12:00.711Z,12.63
2017-10-12T00:14:28.980Z,12.58
2017-10-12T00:16:57.242Z,12.50
2017-10-12T00:19:25.505Z,12.47
2017-10-12T00:21:53.776Z,12.52
2017-10-12T00:24:22.032Z,12.59
2017-10-12T00:26:50.292Z,12.75
2017-10-12T00:29:18.533Z,12.64
2017-10-12T00:31:47.559Z,12.59
2017-10-12T00:34:15.821Z,12.43
2017-10-12T00:36:44.836Z,12.43
2017-10-12T00:39:13.118Z,12.43
2017-10-12T00:41:41.374Z,12.35
2017-10-12T00:44:09.622Z,12.30
2017-10-12T00:46:38.637Z,12.30
2017-10-12T00:49:06.888Z,12.26
2017-10-12T00:51:35.918Z,12.26
2017-10-12T00:54:04.171Z,12.14
2017-10-12T00:56:33.396Z,11.94
2017-10-12T00:59:01.658Z,12.03
2017-10-12T01:01:29.925Z,12.05
2017-10-12T01:03:58.183Z,12.03
2017-10-12T01:06:27.214Z,12.09
2017-10-12T01:08:55.468Z,12.05
2017-10-12T01:11:23.741Z,11.90
2017-10-12T01:13:52.767Z,11.86
2017-10-12T01:16:21.043Z,11.70
2017-10-12T01:18:49.311Z,11.67
2017-10-12T01:21:17.574Z,11.65
2017-10-12T01:23:47.371Z,11.67
2017-10-12T01:26:16.390Z,11.79
2017-10-12T01:28:44.650Z,11.89
2017-10-12T01:31:12.919Z,11.84
2017-10-12T01:33:41.939Z,11.93
2017-10-12T01:36:10.195Z,11.98
2017-10-12T01:38:38.439Z,12.00
2017-10-12T01:41:06.694Z,11.95
2017-10-12T01:43:34.952Z,12.00
2017-10-12T01:46:03.483Z,11.98
2017-10-12T01:48:49.483Z,11.94
2017-10-12T01:53:46.581Z,11.88
2017-10-12T01:56:14.839Z,11.93
2017-10-12T01:58:43.086Z,11.91
2017-10-12T02:01:11.364Z,11.83
2017-10-12T02:03:39.616Z,11.82
2017-10-12T02:08:35.418Z,11.72
2017-10-12T02:11:03.670Z,11.62
2017-10-12T02:13:31.918Z,11.63
2017-10-12T02:16:00.181Z,11.56
2017-10-12T02:18:28.436Z,11.51
2017-10-12T02:20:56.701Z,11.51
2017-10-12T02:23:24.948Z,11.48
2017-10-12T02:25:53.201Z,11.43
2017-10-12T02:28:22.214Z,11.44
2017-10-12T02:30:50.469Z,11.43
2017-10-12T02:33:19.490Z,11.48
2017-10-12T02:35:47.748Z,11.51
2017-10-12T02:38:16.759Z,11.46
2017-10-12T02:40:45.017Z,11.48
2017-10-12T02:43:14.035Z,11.58
2017-10-12T02:45:42.295Z,11.64
2017-10-12T02:48:10.545Z,11.79
2017-10-12T02:50:38.793Z,11.84
2017-10-12T02:53:07.043Z,11.80
2017-10-12T02:55:35.312Z,11.84
2017-10-12T02:58:03.561Z,11.86
2017-10-12T03:00:32.589Z,11.96
2017-10-12T03:03:00.854Z,11.97
2017-10-12T03:05:29.114Z,12.05
2017-10-12T03:07:57.375Z,11.98
2017-10-12T03:10:26.402Z,11.88
2017-10-12T03:12:54.659Z,11.89
2017-10-12T03:15:22.923Z,11.88
2017-10-12T03:17:51.178Z,11.78
2017-10-12T03:20:19.452Z,11.83
2017-10-12T03:22:47.715Z,11.79
2017-10-12T03:25:15.979Z,11.79
2017-10-12T03:27:44.233Z,11.83
2017-10-12T03:30:12.490Z,11.85
2017-10-12T03:32:40.758Z,12.06
2017-10-12T03:35:09.771Z,12.10
2017-10-12T03:37:38.056Z,11.95
2017-10-12T03:40:06.310Z,11.93
2017-10-12T03:42:34.573Z,11.97
2017-10-12T03:45:03.593Z,11.86
2017-10-12T03:47:31.856Z,11.88
2017-10-12T03:50:00.107Z,11.91
2017-10-12T03:52:29.140Z,11.81
2017-10-12T03:54:57.395Z,11.83
2017-10-12T03:57:25.661Z,11.93
2017-10-12T03:59:54.688Z,11.95
2017-10-12T04:02:22.955Z,12.01
2017-10-12T04:04:51.218Z,12.04
2017-10-12T04:07:19.488Z,12.02
2017-10-12T04:09:48.511Z,12.02
2017-10-12T04:12:16.778Z,12.06
2017-10-12T04:14:45.029Z,12.17
2017-10-12T04:17:14.056Z,12.16
2017-10-12T04:19:42.307Z,12.24
2017-10-12T04:22:10.574Z,12.34
2017-10-12T04:24:39.590Z,12.26
2017-10-12T04:27:07.862Z,12.24
2017-10-12T04:29:36.119Z,12.19
2017-10-12T04:32:04.391Z,12.19
2017-10-12T04:34:33.394Z,12.19
2017-10-12T04:37:01.654Z,12.37
2017-10-12T04:39:30.666Z,12.32
2017-10-12T04:41:58.929Z,12.35
2017-10-12T04:44:27.942Z,12.39
2017-10-12T04:46:56.197Z,12.36
2017-10-12T04:49:25.212Z,12.46
2017-10-12T04:51:53.466Z,12.43
2017-10-12T04:54:23.060Z,12.44
2017-10-12T04:56:52.096Z,12.49
2017-10-12T04:59:20.349Z,12.46
2017-10-12T05:01:48.603Z,12.58
2017-10-12T05:04:17.624Z,12.65
2017-10-12T05:06:45.874Z,12.64
2017-10-12T05:09:14.113Z,12.66
2017-10-12T05:11:42.379Z,12.64
2017-10-12T05:14:10.631Z,12.73
2017-10-12T05:16:38.895Z,12.65
2017-10-12T05:19:07.143Z,12.69
2017-10-12T05:21:35.401Z,12.67
2017-10-12T05:24:03.648Z,12.66
2017-10-12T05:26:31.906Z,12.71
2017-10-12T05:29:00.181Z,12.72
2017-10-12T05:31:28.456Z,12.75
2017-10-12T05:33:56.708Z,12.77
2017-10-12T05:36:25.746Z,12.80
2017-10-12T05:38:54.006Z,12.82
2017-10-12T05:41:22.280Z,12.89
2017-10-12T05:43:50.544Z,12.83
2017-10-12T05:46:18.806Z,12.82
2017-10-12T05:48:47.058Z,12.82
2017-10-12T05:51:15.328Z,12.87
2017-10-12T05:53:43.597Z,12.87
2017-10-12T05:56:11.867Z,12.85
2017-10-12T05:58:40.127Z,12.84
2017-10-12T06:01:08.394Z,12.83
2017-10-12T06:03:36.652Z,12.83
2017-10-12T06:06:04.922Z,12.92
2017-10-12T06:08:33.190Z,12.87
2017-10-12T06:11:02.202Z,12.90
2017-10-12T06:13:30.465Z,12.92
2017-10-12T06:15:58.723Z,12.89
2017-10-12T06:18:26.975Z,12.95
2017-10-12T06:20:55.227Z,12.93
2017-10-12T06:23:23.489Z,12.93
2017-10-12T06:25:51.743Z,12.93
2017-10-12T06:28:20.013Z,12.94
2017-10-12T06:30:49.029Z,12.90
2017-10-12T06:33:17.272Z,12.90
2017-10-12T06:35:46.289Z,12.94
2017-10-12T06:38:14.545Z,12.94
2017-10-12T06:40:43.596Z,12.99
2017-10-12T06:43:11.878Z,12.98
2017-10-12T06:45:40.137Z,13.02
2017-10-12T06:48:08.390Z,13.03
2017-10-12T06:50:36.634Z,13.09
2017-10-12T06:53:05.651Z,13.13
2017-10-12T06:55:33.899Z,13.18
2017-10-12T06:58:02.151Z,13.16
2017-10-12T07:00:30.393Z,13.14
2017-10-12T07:02:58.650Z,13.22
2017-10-12T07:05:26.899Z,13.23
2017-10-12T07:07:55.918Z,13.36
2017-10-12T07:10:24.166Z,13.40
2017-10-12T07:12:52.418Z,13.45
2017-10-12T07:15:20.675Z,13.47
2017-10-12T07:17:48.952Z,13.55
2017-10-12T07:20:17.219Z,13.57
2017-10-12T07:22:45.475Z,13.63
2017-10-12T07:25:13.711Z,13.63
2017-10-12T07:27:41.958Z,13.66
2017-10-12T07:30:10.206Z,13.69
2017-10-12T07:32:38.466Z,13.82
2017-10-12T07:35:06.713Z,13.86
2017-10-12T07:37:34.970Z,13.91
2017-10-12T07:40:03.231Z,14.01
2017-10-12T07:42:31.732Z,14.19
2017-10-12T07:44:59.985Z,14.16
2017-10-12T07:47:28.244Z,14.34
2017-10-12T07:49:56.494Z,14.33
2017-10-12T07:52:25.515Z,14.30
2017-10-12T07:54:53.754Z,14.19
2017-10-12T07:57:22.775Z,14.34
2017-10-12T07:59:51.022Z,14.26
2017-10-12T08:02:19.271Z,14.34
2017-10-12T08:04:47.515Z,14.34
2017-10-12T08:07:15.766Z,14.68
2017-10-12T08:09:44.018Z,14.75
2017-10-12T08:12:12.265Z,15.08
2017-10-12T08:14:40.516Z,15.05
2017-10-12T08:17:08.763Z,14.93
2017-10-12T08:19:37.776Z,14.96
2017-10-12T08:22:06.026Z,14.77
2017-10-12T08:24:35.043Z,14.80
2017-10-12T08:27:03.294Z,14.84
2017-10-12T08:29:32.306Z,14.79
2017-10-12T08:32:00.566Z,14.63
2017-10-12T08:34:29.575Z,14.85
2017-10-12T08:36:57.825Z,14.80
2017-10-12T08:39:26.839Z,14.96
2017-10-12T08:41:55.093Z,14.97
2017-10-12T08:44:24.105Z,15.04
2017-10-12T08:46:52.351Z,15.13
2017-10-12T08:49:20.607Z,15.04
2017-10-12T08:51:48.848Z,15.14
2017-10-12T08:54:17.102Z,15.40
2017-10-12T08:56:46.122Z,15.29
2017-10-12T08:59:14.380Z,15.19
2017-10-12T09:01:42.643Z,15.27
2017-10-12T09:04:11.655Z,15.33
2017-10-12T09:06:39.908Z,15.18
2017-10-12T09:09:08.921Z,15.14
2017-10-12T09:11:37.172Z,15.40
2017-10-12T09:14:06.182Z,15.45
2017-10-12T09:16:34.441Z,15.47
2017-10-12T09:19:03.454Z,15.37
2017-10-12T09:21:31.704Z,15.53
2017-10-12T09:24:00.721Z,15.52
2017-10-12T09:26:28.962Z,15.74
2017-10-12T09:28:57.214Z,15.66
2017-10-12T09:31:25.462Z,15.53
2017-10-12T09:33:53.726Z,15.61
2017-10-12T09:36:21.971Z,15.80
2017-10-12T09:38:50.987Z,15.58
2017-10-12T09:41:19.234Z,15.55
2017-10-12T09:43:47.798Z,15.69
2017-10-12T09:46:16.057Z,15.92
2017-10-12T09:48:45.082Z,15.54
2017-10-12T09:51:13.326Z,15.69
2017-10-12T09:53:41.571Z,15.67
2017-10-12T09:56:09.818Z,15.80
2017-10-12T09:58:38.084Z,15.90
2017-10-12T10:01:06.325Z,15.92
2017-10-12T10:03:34.597Z,15.81
2017-10-12T10:06:02.842Z,16.14
2017-10-12T10:08:31.090Z,16.58
2017-10-12T10:10:59.330Z,16.68
2017-10-12T10:13:27.598Z,16.34
2017-10-12T10:15:55.851Z,16.92
2017-10-12T10:18:24.107Z,16.77
2017-10-12T10:20:53.126Z,16.69
2017-10-12T10:23:21.370Z,16.61
2017-10-12T10:25:50.412Z,16.65
2017-10-12T10:28:18.654Z,16.43
2017-10-12T10:30:46.896Z,16.57
2017-10-12T10:33:15.160Z,16.55
2017-10-12T10:35:43.415Z,16.33
2017-10-12T10:38:11.669Z,16.53
2017-10-12T10:40:39.911Z,16.45
2017-10-12T10:43:08.940Z,16.57
2017-10-12T10:45:37.200Z,16.30
2017-10-12T10:48:06.215Z,16.20
2017-10-12T10:50:34.471Z,16.05
2017-10-12T10:53:02.723Z,16.11
2017-10-12T10:55:31.744Z,16.10
2017-10-12T10:57:59.995Z,16.06
2017-10-12T11:00:29.006Z,15.98
2017-10-12T11:02:57.750Z,15.96
2017-10-12T11:05:26.012Z,16.08
2017-10-12T11:07:54.277Z,16.37
2017-10-12T11:10:22.527Z,16.42
2017-10-12T11:12:50.786Z,16.47
2017-10-12T11:15:19.047Z,16.44
2017-10-12T11:17:47.321Z,16.66
2017-10-12T11:20:15.559Z,16.45
2017-10-12T11:22:43.816Z,16.83
2017-10-12T11:25:12.059Z,16.57
2017-10-12T11:27:41.075Z,16.35
2017-10-12T11:30:09.319Z,16.37
2017-10-12T11:32:38.345Z,18.56
2017-10-12T11:35:06.581Z,18.31
2017-10-12T11:37:35.599Z,20.04
2017-10-12T11:40:03.843Z,19.95
2017-10-12T11:42:32.090Z,20.25
2017-10-12T11:45:00.340Z,19.89
2017-10-12T11:47:28.599Z,18.95
2017-10-12T11:49:56.843Z,19.51
2017-10-12T11:52:25.094Z,17.95
2017-10-12T11:54:53.344Z,18.46
2017-10-12T11:57:21.590Z,18.07
2017-10-12T11:59:50.600Z,18.96
2017-10-12T12:02:18.847Z,19.09
2017-10-12T12:04:47.871Z,18.32
2017-10-12T12:07:16.106Z,18.87
2017-10-12T12:09:44.359Z,18.02
2017-10-12T12:12:12.600Z,17.79
2017-10-12T12:14:40.855Z,17.89
2017-10-12T12:17:09.861Z,18.92
2017-10-12T12:19:38.120Z,17.83
2017-10-12T12:22:07.125Z,18.62
2017-10-12T12:24:35.386Z,18.92
2017-10-12T12:27:04.389Z,18.38
2017-10-12T12:29:32.646Z,19.39
2017-10-12T12:32:01.657Z,18.32
2017-10-12T12:34:30.667Z,18.70
2017-10-12T12:36:58.910Z,18.08
2017-10-12T12:39:27.930Z,19.20
2017-10-12T12:41:56.180Z,18.39
2017-10-12T12:44:25.202Z,18.50
2017-10-12T12:46:53.457Z,18.85
2017-10-12T12:49:22.487Z,19.15
2017-10-12T12:51:50.754Z,18.16
2017-10-12T12:54:19.012Z,18.93
2017-10-12T12:56:47.255Z,19.24
2017-10-12T12:59:15.514Z,20.07
2017-10-12T13:01:43.755Z,19.09
2017-10-12T13:04:12.010Z,18.42
2017-10-12T13:06:40.254Z,18.87
2017-10-12T13:09:08.506Z,20.85
2017-10-12T13:11:36.755Z,21.11
2017-10-12T13:14:05.010Z,19.20
2017-10-12T13:16:33.252Z,20.08
2017-10-12T13:19:01.524Z,19.79
2017-10-12T13:21:29.786Z,19.68
2017-10-12T13:23:58.035Z,18.56
2017-10-12T13:26:26.281Z,19.11
2017-10-12T13:28:55.291Z,19.62
2017-10-12T13:31:23.533Z,20.83
2017-10-12T13:33:52.550Z,20.10
2017-10-12T13:36:20.802Z,18.52
2017-10-12T13:38:49.814Z,18.14
2017-10-12T13:41:18.067Z,18.01
2017-10-12T13:43:46.562Z,18.23
2017-10-12T13:46:15.584Z,18.20
2017-10-12T13:48:43.847Z,18.20
2017-10-12T13:51:12.094Z,18.22
2017-10-12T13:53:41.106Z,18.34
2017-10-12T13:56:09.351Z,18.47
2017-10-12T13:58:37.600Z,18.47
2017-10-12T14:01:05.860Z,18.37
2017-10-12T14:03:34.133Z,17.98
2017-10-12T14:06:02.379Z,18.38
2017-10-12T14:08:31.386Z,19.08
2017-10-12T14:10:59.628Z,18.71
2017-10-12T14:13:27.884Z,18.19
2017-10-12T14:15:56.130Z,17.83
2017-10-12T14:18:24.387Z,17.45
2017-10-12T14:20:52.634Z,17.56
2017-10-12T14:23:21.655Z,17.38
2017-10-12T14:25:49.915Z,17.75
2017-10-12T14:28:18.145Z,17.61
2017-10-12T14:30:47.154Z,18.05
2017-10-12T14:33:15.399Z,17.67
2017-10-12T14:35:43.644Z,17.56
2017-10-12T14:38:11.894Z,17.49
2017-10-12T14:40:40.902Z,17.37
2017-10-12T14:43:09.940Z,17.45
2017-10-12T14:45:39.015Z,17.40
2017-10-12T14:48:07.258Z,17.46
2017-10-12T14:50:36.288Z,17.44
2017-10-12T14:53:04.522Z,17.45
2017-10-12T14:55:33.542Z,17.51
2017-10-12T14:58:01.791Z,17.13
2017-10-12T15:00:30.816Z,17.12
2017-10-12T15:02:59.062Z,17.37
2017-10-12T15:05:28.089Z,17.28
2017-10-12T15:07:56.344Z,17.19
2017-10-12T15:10:25.342Z,17.28
2017-10-12T15:12:54.840Z,17.28
2017-10-12T15:15:23.863Z,17.82
2017-10-12T15:17:52.120Z,17.20
2017-10-12T15:20:20.541Z,17.10
2017-10-12T15:22:48.791Z,16.91
2017-10-12T15:25:17.058Z,16.96
2017-10-12T15:27:45.310Z,16.84
2017-10-12T15:30:14.330Z,16.75
2017-10-12T15:32:42.583Z,16.77
2017-10-12T15:35:11.604Z,16.60
2017-10-12T15:37:39.849Z,16.78
2017-10-12T15:40:08.885Z,16.49
2017-10-12T15:42:37.140Z,16.42
2017-10-12T15:45:05.408Z,16.46
2017-10-12T15:47:33.663Z,16.47
2017-10-12T15:50:02.687Z,16.37
2017-10-12T15:52:30.945Z,16.36
2017-10-12T15:54:59.207Z,16.26
2017-10-12T15:57:28.219Z,16.14
2017-10-12T15:59:56.488Z,16.12
2017-10-12T16:02:24.736Z,16.11
2017-10-12T16:04:53.019Z,16.08
2017-10-12T16:07:22.080Z,15.92
2017-10-12T16:09:50.327Z,15.96
2017-10-12T16:12:18.606Z,15.93
2017-10-12T16:14:46.866Z,15.84
2017-10-12T16:17:15.114Z,15.76
2017-10-12T16:19:44.147Z,15.75
2017-10-12T16:22:12.411Z,15.72
2017-10-12T16:24:40.664Z,15.55
2017-10-12T16:27:09.694Z,15.50
2017-10-12T16:29:37.943Z,15.47
2017-10-12T16:32:06.981Z,15.44
2017-10-12T16:34:35.233Z,15.39
2017-10-12T16:37:03.503Z,15.30
2017-10-12T16:39:31.765Z,15.24
2017-10-12T16:42:00.783Z,15.26
2017-10-12T16:44:29.052Z,15.21
2017-10-12T16:46:57.330Z,15.16
2017-10-12T16:49:25.579Z,15.13
2017-10-12T16:51:53.846Z,15.10
2017-10-12T16:54:22.104Z,15.02
2017-10-12T16:56:50.364Z,14.99
2017-10-12T16:59:18.632Z,14.99
2017-10-12T17:01:46.910Z,14.96
2017-10-12T17:04:15.166Z,14.93
2017-10-12T17:06:43.452Z,14.96
2017-10-12T17:09:11.702Z,14.91
2017-10-12T17:11:39.972Z,14.84
2017-10-12T17:14:08.239Z,14.79
2017-10-12T17:16:36.511Z,14.79
2017-10-12T17:19:04.791Z,14.78
2017-10-12T17:21:33.815Z,14.77
2017-10-12T17:24:02.096Z,14.71
2017-10-12T17:26:30.354Z,14.70
2017-10-12T17:28:58.615Z,14.77
2017-10-12T17:31:26.871Z,14.71
2017-10-12T17:33:55.907Z,14.69
2017-10-12T17:36:24.159Z,14.67
2017-10-12T17:38:52.463Z,14.66
2017-10-12T17:43:48.979Z,14.51
2017-10-12T17:46:18.005Z,14.55
2017-10-12T17:48:46.261Z,14.52
2017-10-12T17:51:14.515Z,14.49
2017-10-12T17:53:42.790Z,14.44
2017-10-12T17:56:11.050Z,14.39
2017-10-12T17:58:39.316Z,14.44
2017-10-12T18:01:07.582Z,14.41
2017-10-12T18:03:35.870Z,14.46
2017-10-12T18:06:04.125Z,14.51
2017-10-12T18:08:32.384Z,14.41
2017-10-12T18:11:00.636Z,14.36
2017-10-12T18:13:28.899Z,14.38
2017-10-12T18:15:57.915Z,14.32
2017-10-12T18:18:26.243Z,14.28
2017-10-12T18:20:54.508Z,14.16
2017-10-12T18:23:22.785Z,14.07
2017-10-12T18:25:51.039Z,14.03
2017-10-12T18:28:19.297Z,14.04
2017-10-12T18:30:47.557Z,13.97
2017-10-12T18:33:15.830Z,13.96
2017-10-12T18:35:44.098Z,13.85
2017-10-12T18:38:13.120Z,13.73
2017-10-12T18:40:41.382Z,13.69
2017-10-12T18:43:09.645Z,13.62
2017-10-12T18:45:38.677Z,13.65
2017-10-12T18:48:06.949Z,13.65
2017-10-12T18:50:35.222Z,13.59
2017-10-12T18:53:03.476Z,13.47
2017-10-12T18:55:31.739Z,13.56
2017-10-12T18:58:00.756Z,13.49
2017-10-12T19:00:29.028Z,13.55
2017-10-12T19:02:57.297Z,13.49
2017-10-12T19:05:25.561Z,13.54
2017-10-12T19:07:54.573Z,13.57
2017-10-12T19:10:22.835Z,13.69
2017-10-12T19:12:51.114Z,13.68
2017-10-12T19:17:48.392Z,13.64
2017-10-12T19:20:16.650Z,13.67
2017-10-12T19:22:45.669Z,13.61
2017-10-12T19:25:13.928Z,13.56
2017-10-12T19:27:42.169Z,13.58
2017-10-12T19:30:10.432Z,13.57
2017-10-12T19:32:38.689Z,13.54
2017-10-12T19:35:06.948Z,13.55
2017-10-12T19:37:35.190Z,13.47
2017-10-12T19:40:04.260Z,13.42
2017-10-12T19:42:32.503Z,13.43
2017-10-12T19:45:00.757Z,13.36
2017-10-12T19:47:29.030Z,13.35
2017-10-12T19:49:57.274Z,13.26
2017-10-12T19:52:25.536Z,13.23
2017-10-12T19:54:53.781Z,13.23
2017-10-12T19:57:22.049Z,13.24
2017-10-12T19:59:50.313Z,13.25
2017-10-12T20:02:18.567Z,13.28
2017-10-12T20:04:47.577Z,13.22
2017-10-12T20:07:15.834Z,13.25
2017-10-12T20:09:44.850Z,13.30
2017-10-12T20:12:13.116Z,13.23
2017-10-12T20:14:41.359Z,13.25
2017-10-12T20:17:09.631Z,13.17
2017-10-12T20:19:37.896Z,13.26
2017-10-12T20:22:06.144Z,13.20
2017-10-12T20:24:34.396Z,13.18
2017-10-12T20:27:02.641Z,13.30
2017-10-12T20:31:59.137Z,13.22
2017-10-12T20:34:27.395Z,13.21
2017-10-12T20:36:55.643Z,13.20
2017-10-12T20:39:24.672Z,13.21
2017-10-12T20:44:22.030Z,13.14
2017-10-12T20:46:50.421Z,13.28
2017-10-12T20:49:18.666Z,13.14
2017-10-12T20:51:47.687Z,13.15
2017-10-12T20:54:15.925Z,13.11
2017-10-12T20:56:44.946Z,13.15
2017-10-12T20:59:13.196Z,13.06
2017-10-12T21:01:42.331Z,13.08
2017-10-12T21:04:10.584Z,13.02
2017-10-12T21:06:39.628Z,12.98
2017-10-12T21:09:07.873Z,13.00
2017-10-12T21:11:36.148Z,12.97
2017-10-12T21:14:04.390Z,13.02
2017-10-12T21:16:33.413Z,12.94
2017-10-12T21:19:01.659Z,12.91
2017-10-12T21:21:30.679Z,12.90
2017-10-12T21:23:58.931Z,12.89
2017-10-12T21:26:27.951Z,12.92
2017-10-12T21:28:56.209Z,12.91
2017-10-12T21:31:25.222Z,12.88
2017-10-12T21:33:53.479Z,12.93
2017-10-12T21:36:22.490Z,12.89
2017-10-12T21:38:50.771Z,12.87
2017-10-12T21:41:19.023Z,12.88
2017-10-12T21:43:48.796Z,12.91
2017-10-12T21:46:17.060Z,12.89
2017-10-12T21:48:45.319Z,12.89
2017-10-12T21:51:13.561Z,12.86
2017-10-12T21:53:42.593Z,12.87
2017-10-12T21:56:10.834Z,12.95
2017-10-12T21:58:39.090Z,12.90
2017-10-12T22:01:08.110Z,12.94
2017-10-12T22:03:36.356Z,12.86
2017-10-12T22:06:05.377Z,12.89
2017-10-12T22:08:33.629Z,13.01
2017-10-12T22:11:02.649Z,12.99
2017-10-12T22:13:30.889Z,12.95
2017-10-12T22:15:59.914Z,12.98
2017-10-12T22:18:28.160Z,12.99
2017-10-12T22:20:57.189Z,12.94
2017-10-12T22:23:25.435Z,13.01
2017-10-12T22:25:54.461Z,12.93
2017-10-12T22:28:22.703Z,13.00
2017-10-12T22:30:51.722Z,12.96
2017-10-12T22:33:19.970Z,12.99
2017-10-12T22:35:48.989Z,12.95
2017-10-12T22:38:17.242Z,12.95
2017-10-12T22:40:46.246Z,12.88
2017-10-12T22:43:14.495Z,12.84
2017-10-12T22:45:42.746Z,12.85
2017-10-12T22:48:11.003Z,12.88
2017-10-12T22:50:39.237Z,12.84
2017-10-12T22:53:08.254Z,12.79
2017-10-12T22:55:36.502Z,12.71
2017-10-12T22:58:05.519Z,12.75
2017-10-12T23:00:33.775Z,12.66
2017-10-12T23:03:02.794Z,12.64
2017-10-12T23:05:31.037Z,12.69
2017-10-12T23:08:00.074Z,12.65
2017-10-12T23:10:28.323Z,12.63
2017-10-12T23:12:56.566Z,12.62
2017-10-12T23:15:24.813Z,12.62
2017-10-12T23:17:53.061Z,12.53
2017-10-12T23:20:21.319Z,12.50
2017-10-12T23:22:50.337Z,12.44
2017-10-12T23:25:18.580Z,12.41
2017-10-12T23:27:47.590Z,12.46
2017-10-12T23:30:15.852Z,12.26
2017-10-12T23:32:44.859Z,12.46
2017-10-12T23:35:13.114Z,12.41
2017-10-12T23:37:42.130Z,12.37
2017-10-12T23:40:10.402Z,12.35
2017-10-12T23:42:38.653Z,12.30
2017-10-12T23:45:07.660Z,12.30
2017-10-12T23:47:35.926Z,12.24
2017-10-12T23:50:04.931Z,12.28
2017-10-12T23:52:33.947Z,12.32
2017-10-12T23:55:02.202Z,12.29
2017-10-12T23:57:31.219Z,12.29
2017-10-12T23:59:59.465Z,12.25
